Athens, Arkansas
Current Conditions -  °F | °C
As of 2:35 PM on Saturday 20 Dec 2014 (Local Time) from KMEZ Reporting Station
Overcast Overcast  
Wind Chill: 10°   Ceiling: 2700
Heat Index: 10°   Visibility: 10mi
Dew Point:   Wind: 3mph
Humidity: 76%   Direction: 280°W
Pressure: 30.18"   Gusts: NA
Location:  34.2871°N, 94.1174°W
Report Text: KMEZ 202035Z AUTO 28003KT 10SM SCT018 OVC027 10/06 A3018 RMK AO2
Loading
Personal Weather Stations






























Interactive Weather Map New forecast layout! Learn more

10-Day Weather Forecast

Advertisements
Track Severe Weather on mobile